sensor_id;sensor_type;location;lat;lon;timestamp;P1;durP1;ratioP1;P2;durP2;ratioP2
20743;SDS011;56303;52.160;-0.428;2023-09-12T00:00:45;9.40;;;4.87;;
20743;SDS011;56303;52.160;-0.428;2023-09-12T00:03:12;5.90;;;4.70;;
20743;SDS011;56303;52.160;-0.428;2023-09-12T00:05:39;5.67;;;4.00;;
20743;SDS011;56303;52.160;-0.428;2023-09-12T00:08:06;8.60;;;5.07;;
20743;SDS011;56303;52.160;-0.428;2023-09-12T00:10:33;7.97;;;4.73;;
20743;SDS011;56303;52.160;-0.428;2023-09-12T00:13:00;6.83;;;4.43;;
20743;SDS011;56303;52.160;-0.428;2023-09-12T00:15:28;7.87;;;4.60;;
20743;SDS011;56303;52.160;-0.428;2023-09-12T00:17:55;6.83;;;4.73;;
20743;SDS011;56303;52.160;-0.428;2023-09-12T00:20:23;7.63;;;4.87;;
20743;SDS011;56303;52.160;-0.428;2023-09-12T00:22:50;5.47;;;4.10;;
20743;SDS011;56303;52.160;-0.428;2023-09-12T00:25:16;6.23;;;4.87;;
20743;SDS011;56303;52.160;-0.428;2023-09-12T00:27:43;8.63;;;4.33;;
20743;SDS011;56303;52.160;-0.428;2023-09-12T00:30:10;5.33;;;4.80;;
20743;SDS011;56303;52.160;-0.428;2023-09-12T00:32:37;9.90;;;4.30;;
20743;SDS011;56303;52.160;-0.428;2023-09-12T00:35:04;6.63;;;4.70;;
20743;SDS011;56303;52.160;-0.428;2023-09-12T00:37:32;6.43;;;4.70;;
20743;SDS011;56303;52.160;-0.428;2023-09-12T00:39:58;6.90;;;4.73;;
20743;SDS011;56303;52.160;-0.428;2023-09-12T00:42:25;7.07;;;4.77;;
20743;SDS011;56303;52.160;-0.428;2023-09-12T00:44:53;6.33;;;4.53;;
20743;SDS011;56303;52.160;-0.428;2023-09-12T00:47:20;7.37;;;4.50;;
20743;SDS011;56303;52.160;-0.428;2023-09-12T00:49:48;7.63;;;4.93;;
20743;SDS011;56303;52.160;-0.428;2023-09-12T00:52:22;6.77;;;4.87;;
20743;SDS011;56303;52.160;-0.428;2023-09-12T00:54:51;7.50;;;4.70;;
20743;SDS011;56303;52.160;-0.428;2023-09-12T00:57:19;6.43;;;4.27;;
20743;SDS011;56303;52.160;-0.428;2023-09-12T00:59:47;6.67;;;4.80;;
20743;SDS011;56303;52.160;-0.428;2023-09-12T01:02:15;6.40;;;4.37;;
20743;SDS011;56303;52.160;-0.428;2023-09-12T01:04:42;5.63;;;4.00;;
20743;SDS011;56303;52.160;-0.428;2023-09-12T01:07:09;5.10;;;4.60;;
20743;SDS011;56303;52.160;-0.428;2023-09-12T01:09:36;7.80;;;4.80;;
20743;SDS011;56303;52.160;-0.428;2023-09-12T01:12:03;7.60;;;5.07;;
20743;SDS011;56303;52.160;-0.428;2023-09-12T01:14:30;5.73;;;4.30;;
20743;SDS011;56303;52.160;-0.428;2023-09-12T01:16:57;5.20;;;3.80;;
20743;SDS011;56303;52.160;-0.428;2023-09-12T01:19:25;6.53;;;4.17;;
20743;SDS011;56303;52.160;-0.428;2023-09-12T01:27:26;5.20;;;4.03;;
20743;SDS011;56303;52.160;-0.428;2023-09-12T01:29:56;6.67;;;3.83;;
20743;SDS011;56303;52.160;-0.428;2023-09-12T01:32:27;6.60;;;4.43;;
20743;SDS011;56303;52.160;-0.428;2023-09-12T01:34:55;7.17;;;4.80;;
20743;SDS011;56303;52.160;-0.428;2023-09-12T01:37:22;7.90;;;4.60;;
20743;SDS011;56303;52.160;-0.428;2023-09-12T01:39:48;5.43;;;4.37;;
20743;SDS011;56303;52.160;-0.428;2023-09-12T01:42:16;6.63;;;4.83;;
20743;SDS011;56303;52.160;-0.428;2023-09-12T01:44:46;7.47;;;4.50;;
20743;SDS011;56303;52.160;-0.428;2023-09-12T01:47:17;6.73;;;4.70;;
20743;SDS011;56303;52.160;-0.428;2023-09-12T01:49:47;4.83;;;4.20;;
20743;SDS011;56303;52.160;-0.428;2023-09-12T01:52:15;6.93;;;4.33;;
20743;SDS011;56303;52.160;-0.428;2023-09-12T01:54:43;7.17;;;4.20;;
20743;SDS011;56303;52.160;-0.428;2023-09-12T01:57:11;6.67;;;4.60;;
20743;SDS011;56303;52.160;-0.428;2023-09-12T01:59:39;5.47;;;4.87;;
20743;SDS011;56303;52.160;-0.428;2023-09-12T02:02:06;5.73;;;4.37;;
20743;SDS011;56303;52.160;-0.428;2023-09-12T02:04:33;6.97;;;4.63;;
20743;SDS011;56303;52.160;-0.428;2023-09-12T02:07:00;6.60;;;5.30;;
20743;SDS011;56303;52.160;-0.428;2023-09-12T02:09:27;8.27;;;5.27;;
20743;SDS011;56303;52.160;-0.428;2023-09-12T02:11:54;7.13;;;5.37;;
20743;SDS011;56303;52.160;-0.428;2023-09-12T02:14:20;6.60;;;4.67;;
20743;SDS011;56303;52.160;-0.428;2023-09-12T02:16:47;7.53;;;4.90;;
20743;SDS011;56303;52.160;-0.428;2023-09-12T02:19:14;6.03;;;4.50;;
20743;SDS011;56303;52.160;-0.428;2023-09-12T02:21:41;6.27;;;4.93;;
20743;SDS011;56303;52.160;-0.428;2023-09-12T02:24:09;10.00;;;4.93;;
20743;SDS011;56303;52.160;-0.428;2023-09-12T02:26:36;6.73;;;5.27;;
20743;SDS011;56303;52.160;-0.428;2023-09-12T02:29:03;7.40;;;5.00;;
20743;SDS011;56303;52.160;-0.428;2023-09-12T02:31:32;7.60;;;5.37;;
20743;SDS011;56303;52.160;-0.428;2023-09-12T02:33:59;6.23;;;4.87;;
20743;SDS011;56303;52.160;-0.428;2023-09-12T02:36:26;7.53;;;5.33;;
20743;SDS011;56303;52.160;-0.428;2023-09-12T02:38:54;7.23;;;5.63;;
20743;SDS011;56303;52.160;-0.428;2023-09-12T02:41:21;7.63;;;5.90;;
20743;SDS011;56303;52.160;-0.428;2023-09-12T02:43:48;6.37;;;4.73;;
20743;SDS011;56303;52.160;-0.428;2023-09-12T02:46:15;5.80;;;5.20;;
20743;SDS011;56303;52.160;-0.428;2023-09-12T02:48:41;5.87;;;5.23;;
20743;SDS011;56303;52.160;-0.428;2023-09-12T02:51:09;9.10;;;6.03;;
20743;SDS011;56303;52.160;-0.428;2023-09-12T02:53:36;9.77;;;5.10;;
20743;SDS011;56303;52.160;-0.428;2023-09-12T02:56:02;6.63;;;5.10;;
20743;SDS011;56303;52.160;-0.428;2023-09-12T02:58:29;7.50;;;5.00;;
20743;SDS011;56303;52.160;-0.428;2023-09-12T03:00:56;7.67;;;4.70;;
20743;SDS011;56303;52.160;-0.428;2023-09-12T03:03:23;5.53;;;4.63;;
20743;SDS011;56303;52.160;-0.428;2023-09-12T03:05:59;5.50;;;4.57;;
20743;SDS011;56303;52.160;-0.428;2023-09-12T03:08:27;7.03;;;5.73;;
20743;SDS011;56303;52.160;-0.428;2023-09-12T03:10:57;9.70;;;5.87;;
20743;SDS011;56303;52.160;-0.428;2023-09-12T03:13:24;8.90;;;5.70;;
20743;SDS011;56303;52.160;-0.428;2023-09-12T03:15:52;7.87;;;5.10;;
20743;SDS011;56303;52.160;-0.428;2023-09-12T03:18:19;7.50;;;5.00;;
20743;SDS011;56303;52.160;-0.428;2023-09-12T03:20:46;8.70;;;5.37;;
20743;SDS011;56303;52.160;-0.428;2023-09-12T03:23:13;6.77;;;4.87;;
20743;SDS011;56303;52.160;-0.428;2023-09-12T03:25:39;9.70;;;5.57;;
20743;SDS011;56303;52.160;-0.428;2023-09-12T03:28:06;5.93;;;4.73;;
20743;SDS011;56303;52.160;-0.428;2023-09-12T03:30:35;7.27;;;5.17;;
20743;SDS011;56303;52.160;-0.428;2023-09-12T03:33:03;8.43;;;5.23;;
20743;SDS011;56303;52.160;-0.428;2023-09-12T03:35:31;10.40;;;5.93;;
20743;SDS011;56303;52.160;-0.428;2023-09-12T03:37:59;6.00;;;5.10;;
20743;SDS011;56303;52.160;-0.428;2023-09-12T03:40:29;6.93;;;5.60;;
20743;SDS011;56303;52.160;-0.428;2023-09-12T03:42:57;9.17;;;5.63;;
20743;SDS011;56303;52.160;-0.428;2023-09-12T03:45:24;6.87;;;5.57;;
20743;SDS011;56303;52.160;-0.428;2023-09-12T03:47:51;6.10;;;5.13;;
20743;SDS011;56303;52.160;-0.428;2023-09-12T03:50:18;6.70;;;5.00;;
20743;SDS011;56303;52.160;-0.428;2023-09-12T03:52:45;8.13;;;5.97;;
20743;SDS011;56303;52.160;-0.428;2023-09-12T03:55:12;6.07;;;4.87;;
20743;SDS011;56303;52.160;-0.428;2023-09-12T03:57:39;6.17;;;5.40;;
20743;SDS011;56303;52.160;-0.428;2023-09-12T04:00:06;7.27;;;5.67;;
20743;SDS011;56303;52.160;-0.428;2023-09-12T04:02:35;6.83;;;5.23;;
20743;SDS011;56303;52.160;-0.428;2023-09-12T04:05:01;7.80;;;5.03;;
20743;SDS011;56303;52.160;-0.428;2023-09-12T04:07:28;7.97;;;5.53;;
20743;SDS011;56303;52.160;-0.428;2023-09-12T04:09:55;7.13;;;4.70;;
20743;SDS011;56303;52.160;-0.428;2023-09-12T04:12:22;6.33;;;5.23;;
20743;SDS011;56303;52.160;-0.428;2023-09-12T04:14:49;8.13;;;5.07;;
20743;SDS011;56303;52.160;-0.428;2023-09-12T04:17:17;5.60;;;4.73;;
20743;SDS011;56303;52.160;-0.428;2023-09-12T04:19:44;7.17;;;5.70;;
20743;SDS011;56303;52.160;-0.428;2023-09-12T04:22:11;5.97;;;4.80;;
20743;SDS011;56303;52.160;-0.428;2023-09-12T04:24:37;7.27;;;5.00;;
20743;SDS011;56303;52.160;-0.428;2023-09-12T04:27:04;6.90;;;4.80;;
20743;SDS011;56303;52.160;-0.428;2023-09-12T04:29:32;5.33;;;4.60;;
20743;SDS011;56303;52.160;-0.428;2023-09-12T04:32:04;8.97;;;5.33;;
20743;SDS011;56303;52.160;-0.428;2023-09-12T04:34:32;6.37;;;4.63;;
20743;SDS011;56303;52.160;-0.428;2023-09-12T04:36:59;8.57;;;5.17;;
20743;SDS011;56303;52.160;-0.428;2023-09-12T04:39:28;6.53;;;4.40;;
20743;SDS011;56303;52.160;-0.428;2023-09-12T04:41:56;6.73;;;4.80;;
20743;SDS011;56303;52.160;-0.428;2023-09-12T04:44:23;6.27;;;4.53;;
20743;SDS011;56303;52.160;-0.428;2023-09-12T04:46:50;6.00;;;4.73;;
20743;SDS011;56303;52.160;-0.428;2023-09-12T04:49:17;5.77;;;4.50;;
20743;SDS011;56303;52.160;-0.428;2023-09-12T04:51:43;5.00;;;4.00;;
20743;SDS011;56303;52.160;-0.428;2023-09-12T04:54:10;7.80;;;4.50;;
20743;SDS011;56303;52.160;-0.428;2023-09-12T04:56:38;7.07;;;4.50;;
20743;SDS011;56303;52.160;-0.428;2023-09-12T04:59:04;6.27;;;4.50;;
20743;SDS011;56303;52.160;-0.428;2023-09-12T05:01:33;5.73;;;4.63;;
20743;SDS011;56303;52.160;-0.428;2023-09-12T05:03:59;6.87;;;4.80;;
20743;SDS011;56303;52.160;-0.428;2023-09-12T05:06:26;7.87;;;4.70;;
20743;SDS011;56303;52.160;-0.428;2023-09-12T05:08:53;8.00;;;4.77;;
20743;SDS011;56303;52.160;-0.428;2023-09-12T05:11:22;5.23;;;4.03;;
20743;SDS011;56303;52.160;-0.428;2023-09-12T05:13:50;8.53;;;5.00;;
20743;SDS011;56303;52.160;-0.428;2023-09-12T05:16:19;5.90;;;3.73;;
20743;SDS011;56303;52.160;-0.428;2023-09-12T05:18:45;6.70;;;4.10;;
20743;SDS011;56303;52.160;-0.428;2023-09-12T05:21:12;6.10;;;4.80;;
20743;SDS011;56303;52.160;-0.428;2023-09-12T05:23:39;9.97;;;4.60;;
20743;SDS011;56303;52.160;-0.428;2023-09-12T05:26:06;5.90;;;4.90;;
20743;SDS011;56303;52.160;-0.428;2023-09-12T05:28:33;5.57;;;4.30;;
20743;SDS011;56303;52.160;-0.428;2023-09-12T05:31:00;8.67;;;4.93;;
20743;SDS011;56303;52.160;-0.428;2023-09-12T05:33:27;9.10;;;4.67;;
20743;SDS011;56303;52.160;-0.428;2023-09-12T05:35:58;7.00;;;4.60;;
20743;SDS011;56303;52.160;-0.428;2023-09-12T05:38:25;7.27;;;4.43;;
20743;SDS011;56303;52.160;-0.428;2023-09-12T05:40:52;6.33;;;4.50;;
20743;SDS011;56303;52.160;-0.428;2023-09-12T05:43:19;5.77;;;4.77;;
20743;SDS011;56303;52.160;-0.428;2023-09-12T05:45:46;7.30;;;4.53;;
20743;SDS011;56303;52.160;-0.428;2023-09-12T05:48:13;5.70;;;4.20;;
20743;SDS011;56303;52.160;-0.428;2023-09-12T05:50:39;6.23;;;4.87;;
20743;SDS011;56303;52.160;-0.428;2023-09-12T05:53:07;6.60;;;4.37;;
20743;SDS011;56303;52.160;-0.428;2023-09-12T05:55:34;5.67;;;4.27;;
20743;SDS011;56303;52.160;-0.428;2023-09-12T05:58:01;5.80;;;4.43;;
20743;SDS011;56303;52.160;-0.428;2023-09-12T06:00:32;7.27;;;4.73;;
20743;SDS011;56303;52.160;-0.428;2023-09-12T06:02:59;6.60;;;4.57;;
20743;SDS011;56303;52.160;-0.428;2023-09-12T06:05:27;4.67;;;4.07;;
20743;SDS011;56303;52.160;-0.428;2023-09-12T06:07:53;5.83;;;4.30;;
20743;SDS011;56303;52.160;-0.428;2023-09-12T06:10:21;6.07;;;4.80;;
20743;SDS011;56303;52.160;-0.428;2023-09-12T06:12:47;6.13;;;4.27;;
20743;SDS011;56303;52.160;-0.428;2023-09-12T06:15:16;5.37;;;4.13;;
20743;SDS011;56303;52.160;-0.428;2023-09-12T06:17:42;6.63;;;4.50;;
20743;SDS011;56303;52.160;-0.428;2023-09-12T06:20:10;9.73;;;4.77;;
20743;SDS011;56303;52.160;-0.428;2023-09-12T06:22:36;7.37;;;4.37;;
20743;SDS011;56303;52.160;-0.428;2023-09-12T06:25:03;8.57;;;5.40;;
20743;SDS011;56303;52.160;-0.428;2023-09-12T06:27:32;5.77;;;4.60;;
20743;SDS011;56303;52.160;-0.428;2023-09-12T06:29:59;6.20;;;4.63;;
20743;SDS011;56303;52.160;-0.428;2023-09-12T06:32:26;6.03;;;4.37;;
20743;SDS011;56303;52.160;-0.428;2023-09-12T06:34:52;6.20;;;5.17;;
20743;SDS011;56303;52.160;-0.428;2023-09-12T06:37:19;7.90;;;4.77;;
20743;SDS011;56303;52.160;-0.428;2023-09-12T06:39:50;8.03;;;5.10;;
20743;SDS011;56303;52.160;-0.428;2023-09-12T06:42:18;6.50;;;4.70;;
20743;SDS011;56303;52.160;-0.428;2023-09-12T06:44:45;6.60;;;4.93;;
20743;SDS011;56303;52.160;-0.428;2023-09-12T06:47:11;5.83;;;4.50;;
20743;SDS011;56303;52.160;-0.428;2023-09-12T06:49:39;7.37;;;4.70;;
20743;SDS011;56303;52.160;-0.428;2023-09-12T06:52:06;5.27;;;3.80;;
20743;SDS011;56303;52.160;-0.428;2023-09-12T06:54:33;6.17;;;4.47;;
20743;SDS011;56303;52.160;-0.428;2023-09-12T06:57:01;5.77;;;4.43;;
20743;SDS011;56303;52.160;-0.428;2023-09-12T06:59:28;5.17;;;3.90;;
20743;SDS011;56303;52.160;-0.428;2023-09-12T07:01:55;6.27;;;5.23;;
20743;SDS011;56303;52.160;-0.428;2023-09-12T07:04:22;5.60;;;4.87;;
20743;SDS011;56303;52.160;-0.428;2023-09-12T07:06:49;5.60;;;4.47;;
20743;SDS011;56303;52.160;-0.428;2023-09-12T07:09:17;6.40;;;4.23;;
20743;SDS011;56303;52.160;-0.428;2023-09-12T07:11:45;6.83;;;4.60;;
20743;SDS011;56303;52.160;-0.428;2023-09-12T07:14:13;5.93;;;4.00;;
20743;SDS011;56303;52.160;-0.428;2023-09-12T07:16:40;6.43;;;4.20;;
20743;SDS011;56303;52.160;-0.428;2023-09-12T07:19:07;9.30;;;4.37;;
20743;SDS011;56303;52.160;-0.428;2023-09-12T07:21:34;5.07;;;3.90;;
20743;SDS011;56303;52.160;-0.428;2023-09-12T07:24:00;5.30;;;4.27;;
20743;SDS011;56303;52.160;-0.428;2023-09-12T07:26:27;5.03;;;3.93;;
20743;SDS011;56303;52.160;-0.428;2023-09-12T07:28:54;5.97;;;4.30;;
20743;SDS011;56303;52.160;-0.428;2023-09-12T07:31:21;5.77;;;4.10;;
20743;SDS011;56303;52.160;-0.428;2023-09-12T07:33:48;4.90;;;4.10;;
20743;SDS011;56303;52.160;-0.428;2023-09-12T07:36:15;5.87;;;4.40;;
20743;SDS011;56303;52.160;-0.428;2023-09-12T07:38:42;6.67;;;4.23;;
20743;SDS011;56303;52.160;-0.428;2023-09-12T07:41:11;6.83;;;5.00;;
20743;SDS011;56303;52.160;-0.428;2023-09-12T07:43:38;6.60;;;5.27;;
20743;SDS011;56303;52.160;-0.428;2023-09-12T07:46:07;7.43;;;5.40;;
20743;SDS011;56303;52.160;-0.428;2023-09-12T07:48:34;7.67;;;6.17;;
20743;SDS011;56303;52.160;-0.428;2023-09-12T07:51:00;9.83;;;5.63;;
20743;SDS011;56303;52.160;-0.428;2023-09-12T07:53:28;8.47;;;5.47;;
20743;SDS011;56303;52.160;-0.428;2023-09-12T07:55:58;6.63;;;5.03;;
20743;SDS011;56303;52.160;-0.428;2023-09-12T07:58:25;5.93;;;5.27;;
20743;SDS011;56303;52.160;-0.428;2023-09-12T08:00:52;5.83;;;3.90;;
20743;SDS011;56303;52.160;-0.428;2023-09-12T08:03:19;6.27;;;4.83;;
20743;SDS011;56303;52.160;-0.428;2023-09-12T08:05:56;6.70;;;4.40;;
20743;SDS011;56303;52.160;-0.428;2023-09-12T08:08:25;5.83;;;3.70;;
20743;SDS011;56303;52.160;-0.428;2023-09-12T08:10:53;6.27;;;4.83;;
20743;SDS011;56303;52.160;-0.428;2023-09-12T08:13:21;6.20;;;4.37;;
20743;SDS011;56303;52.160;-0.428;2023-09-12T08:15:47;4.97;;;4.00;;
20743;SDS011;56303;52.160;-0.428;2023-09-12T08:18:15;7.23;;;4.43;;
20743;SDS011;56303;52.160;-0.428;2023-09-12T08:20:43;5.03;;;3.90;;
20743;SDS011;56303;52.160;-0.428;2023-09-12T08:23:10;5.00;;;3.57;;
20743;SDS011;56303;52.160;-0.428;2023-09-12T08:25:39;4.83;;;4.03;;
20743;SDS011;56303;52.160;-0.428;2023-09-12T08:28:06;5.23;;;4.10;;
20743;SDS011;56303;52.160;-0.428;2023-09-12T08:30:32;7.00;;;4.43;;
20743;SDS011;56303;52.160;-0.428;2023-09-12T08:32:59;5.83;;;4.20;;
20743;SDS011;56303;52.160;-0.428;2023-09-12T08:35:29;5.37;;;3.90;;
20743;SDS011;56303;52.160;-0.428;2023-09-12T08:37:56;5.43;;;3.70;;
20743;SDS011;56303;52.160;-0.428;2023-09-12T08:40:23;7.93;;;3.90;;
20743;SDS011;56303;52.160;-0.428;2023-09-12T08:42:50;6.00;;;3.93;;
20743;SDS011;56303;52.160;-0.428;2023-09-12T08:45:18;5.90;;;4.13;;
20743;SDS011;56303;52.160;-0.428;2023-09-12T08:47:52;6.13;;;4.97;;
20743;SDS011;56303;52.160;-0.428;2023-09-12T08:50:22;6.77;;;4.33;;
20743;SDS011;56303;52.160;-0.428;2023-09-12T08:52:53;6.33;;;4.27;;
20743;SDS011;56303;52.160;-0.428;2023-09-12T08:55:32;4.80;;;4.30;;
20743;SDS011;56303;52.160;-0.428;2023-09-12T08:58:02;5.30;;;4.33;;
20743;SDS011;56303;52.160;-0.428;2023-09-12T09:00:30;6.20;;;4.53;;
20743;SDS011;56303;52.160;-0.428;2023-09-12T09:02:57;6.20;;;4.77;;
20743;SDS011;56303;52.160;-0.428;2023-09-12T09:05:25;7.33;;;4.70;;
20743;SDS011;56303;52.160;-0.428;2023-09-12T09:07:55;6.87;;;4.33;;
20743;SDS011;56303;52.160;-0.428;2023-09-12T09:10:23;6.47;;;4.80;;
20743;SDS011;56303;52.160;-0.428;2023-09-12T09:13:12;8.10;;;5.33;;
20743;SDS011;56303;52.160;-0.428;2023-09-12T09:15:39;5.60;;;4.10;;
20743;SDS011;56303;52.160;-0.428;2023-09-12T09:18:08;5.43;;;3.63;;
20743;SDS011;56303;52.160;-0.428;2023-09-12T09:20:38;7.63;;;4.10;;
20743;SDS011;56303;52.160;-0.428;2023-09-12T09:23:08;6.03;;;4.30;;
20743;SDS011;56303;52.160;-0.428;2023-09-12T09:25:41;6.70;;;4.07;;
20743;SDS011;56303;52.160;-0.428;2023-09-12T09:28:18;3.27;;;2.93;;
20743;SDS011;56303;52.160;-0.428;2023-09-12T09:30:47;6.10;;;3.33;;
20743;SDS011;56303;52.160;-0.428;2023-09-12T09:33:15;4.03;;;2.70;;
20743;SDS011;56303;52.160;-0.428;2023-09-12T09:35:43;3.83;;;3.10;;
20743;SDS011;56303;52.160;-0.428;2023-09-12T09:38:14;4.60;;;3.13;;
20743;SDS011;56303;52.160;-0.428;2023-09-12T09:40:45;4.37;;;3.00;;
20743;SDS011;56303;52.160;-0.428;2023-09-12T09:43:12;6.57;;;3.60;;
20743;SDS011;56303;52.160;-0.428;2023-09-12T09:45:44;4.27;;;3.00;;
20743;SDS011;56303;52.160;-0.428;2023-09-12T09:48:19;4.53;;;3.15;;
20743;SDS011;56303;52.160;-0.428;2023-09-12T09:50:46;4.47;;;3.00;;
20743;SDS011;56303;52.160;-0.428;2023-09-12T09:53:14;5.30;;;2.90;;
20743;SDS011;56303;52.160;-0.428;2023-09-12T09:55:41;4.10;;;2.80;;
20743;SDS011;56303;52.160;-0.428;2023-09-12T09:58:09;3.47;;;2.90;;
20743;SDS011;56303;52.160;-0.428;2023-09-12T10:00:43;4.27;;;3.00;;
20743;SDS011;56303;52.160;-0.428;2023-09-12T10:03:12;5.50;;;3.50;;
20743;SDS011;56303;52.160;-0.428;2023-09-12T10:05:41;3.90;;;2.97;;
20743;SDS011;56303;52.160;-0.428;2023-09-12T10:08:09;4.50;;;2.83;;
20743;SDS011;56303;52.160;-0.428;2023-09-12T10:10:38;3.73;;;2.93;;
20743;SDS011;56303;52.160;-0.428;2023-09-12T10:13:05;3.93;;;2.70;;
20743;SDS011;56303;52.160;-0.428;2023-09-12T10:15:34;3.40;;;2.80;;
20743;SDS011;56303;52.160;-0.428;2023-09-12T10:18:06;4.83;;;2.80;;
20743;SDS011;56303;52.160;-0.428;2023-09-12T10:21:15;3.53;;;2.97;;
20743;SDS011;56303;52.160;-0.428;2023-09-12T10:23:45;3.90;;;3.10;;
20743;SDS011;56303;52.160;-0.428;2023-09-12T10:26:17;3.30;;;2.70;;
20743;SDS011;56303;52.160;-0.428;2023-09-12T10:28:46;5.38;;;2.80;;
20743;SDS011;56303;52.160;-0.428;2023-09-12T10:31:14;4.47;;;2.63;;
20743;SDS011;56303;52.160;-0.428;2023-09-12T10:33:43;4.15;;;2.70;;
20743;SDS011;56303;52.160;-0.428;2023-09-12T10:36:12;3.80;;;2.90;;
20743;SDS011;56303;52.160;-0.428;2023-09-12T10:38:41;4.05;;;2.80;;
20743;SDS011;56303;52.160;-0.428;2023-09-12T10:41:14;4.00;;;2.85;;
20743;SDS011;56303;52.160;-0.428;2023-09-12T10:43:42;5.40;;;2.60;;
20743;SDS011;56303;52.160;-0.428;2023-09-12T10:46:16;3.37;;;2.60;;
20743;SDS011;56303;52.160;-0.428;2023-09-12T10:48:43;3.67;;;2.53;;
20743;SDS011;56303;52.160;-0.428;2023-09-12T10:51:10;4.60;;;2.77;;
20743;SDS011;56303;52.160;-0.428;2023-09-12T10:53:45;3.60;;;2.80;;
20743;SDS011;56303;52.160;-0.428;2023-09-12T10:56:16;3.23;;;2.77;;
20743;SDS011;56303;52.160;-0.428;2023-09-12T11:01:30;4.07;;;2.38;;
20743;SDS011;56303;52.160;-0.428;2023-09-12T11:04:35;3.28;;;2.55;;
20743;SDS011;56303;52.160;-0.428;2023-09-12T11:06:54;3.67;;;2.60;;
20743;SDS011;56303;52.160;-0.428;2023-09-12T11:09:24;3.17;;;2.63;;
20743;SDS011;56303;52.160;-0.428;2023-09-12T11:14:25;4.30;;;2.80;;
20743;SDS011;56303;52.160;-0.428;2023-09-12T11:19:44;3.78;;;2.53;;
20743;SDS011;56303;52.160;-0.428;2023-09-12T11:22:28;3.65;;;2.75;;
20743;SDS011;56303;52.160;-0.428;2023-09-12T11:25:01;3.50;;;2.53;;
20743;SDS011;56303;52.160;-0.428;2023-09-12T11:27:44;3.08;;;2.72;;
20743;SDS011;56303;52.160;-0.428;2023-09-12T11:30:27;6.18;;;3.20;;
20743;SDS011;56303;52.160;-0.428;2023-09-12T11:33:03;4.63;;;3.50;;
20743;SDS011;56303;52.160;-0.428;2023-09-12T11:35:35;4.53;;;3.27;;
20743;SDS011;56303;52.160;-0.428;2023-09-12T11:38:04;5.50;;;3.00;;
20743;SDS011;56303;52.160;-0.428;2023-09-12T11:43:02;4.73;;;2.93;;
20743;SDS011;56303;52.160;-0.428;2023-09-12T11:45:30;4.43;;;2.57;;
20743;SDS011;56303;52.160;-0.428;2023-09-12T11:47:59;5.63;;;2.90;;
20743;SDS011;56303;52.160;-0.428;2023-09-12T11:53:03;6.57;;;3.23;;
20743;SDS011;56303;52.160;-0.428;2023-09-12T11:58:32;6.27;;;3.20;;
20743;SDS011;56303;52.160;-0.428;2023-09-12T12:01:01;4.77;;;3.77;;
20743;SDS011;56303;52.160;-0.428;2023-09-12T12:03:29;5.30;;;3.90;;
20743;SDS011;56303;52.160;-0.428;2023-09-12T12:05:56;4.83;;;3.60;;
20743;SDS011;56303;52.160;-0.428;2023-09-12T12:08:24;3.93;;;3.43;;
20743;SDS011;56303;52.160;-0.428;2023-09-12T12:10:55;4.17;;;2.70;;
20743;SDS011;56303;52.160;-0.428;2023-09-12T12:13:22;5.30;;;2.90;;
20743;SDS011;56303;52.160;-0.428;2023-09-12T12:15:50;3.93;;;3.10;;
20743;SDS011;56303;52.160;-0.428;2023-09-12T12:18:17;5.50;;;3.50;;
20743;SDS011;56303;52.160;-0.428;2023-09-12T12:20:44;4.40;;;3.03;;
20743;SDS011;56303;52.160;-0.428;2023-09-12T12:23:11;4.07;;;2.43;;
20743;SDS011;56303;52.160;-0.428;2023-09-12T12:25:38;3.90;;;2.77;;
20743;SDS011;56303;52.160;-0.428;2023-09-12T12:28:06;3.87;;;3.33;;
20743;SDS011;56303;52.160;-0.428;2023-09-12T12:30:33;4.53;;;3.20;;
20743;SDS011;56303;52.160;-0.428;2023-09-12T12:33:02;3.20;;;2.70;;
20743;SDS011;56303;52.160;-0.428;2023-09-12T12:36:03;4.43;;;3.07;;
20743;SDS011;56303;52.160;-0.428;2023-09-12T12:38:36;5.60;;;2.77;;
20743;SDS011;56303;52.160;-0.428;2023-09-12T12:41:22;3.03;;;2.30;;
20743;SDS011;56303;52.160;-0.428;2023-09-12T12:43:51;3.10;;;2.40;;
20743;SDS011;56303;52.160;-0.428;2023-09-12T12:46:20;2.80;;;2.50;;
20743;SDS011;56303;52.160;-0.428;2023-09-12T12:48:50;3.97;;;2.43;;
20743;SDS011;56303;52.160;-0.428;2023-09-12T12:53:49;5.50;;;3.30;;
20743;SDS011;56303;52.160;-0.428;2023-09-12T12:56:20;3.70;;;2.93;;
20743;SDS011;56303;52.160;-0.428;2023-09-12T12:58:49;4.30;;;3.07;;
20743;SDS011;56303;52.160;-0.428;2023-09-12T13:01:24;5.80;;;3.00;;
20743;SDS011;56303;52.160;-0.428;2023-09-12T13:03:51;5.53;;;3.30;;
20743;SDS011;56303;52.160;-0.428;2023-09-12T13:06:20;3.73;;;2.63;;
20743;SDS011;56303;52.160;-0.428;2023-09-12T13:08:48;6.17;;;3.27;;
20743;SDS011;56303;52.160;-0.428;2023-09-12T13:11:16;4.73;;;3.10;;
20743;SDS011;56303;52.160;-0.428;2023-09-12T13:13:44;3.27;;;2.70;;
20743;SDS011;56303;52.160;-0.428;2023-09-12T13:16:13;4.97;;;3.33;;
20743;SDS011;56303;52.160;-0.428;2023-09-12T13:18:40;4.10;;;3.13;;
20743;SDS011;56303;52.160;-0.428;2023-09-12T13:21:08;3.70;;;2.97;;
20743;SDS011;56303;52.160;-0.428;2023-09-12T13:23:35;4.13;;;3.20;;
20743;SDS011;56303;52.160;-0.428;2023-09-12T13:26:03;5.83;;;3.27;;
20743;SDS011;56303;52.160;-0.428;2023-09-12T13:28:32;4.20;;;3.03;;
20743;SDS011;56303;52.160;-0.428;2023-09-12T13:30:58;3.83;;;3.00;;
20743;SDS011;56303;52.160;-0.428;2023-09-12T13:33:25;4.60;;;3.10;;
20743;SDS011;56303;52.160;-0.428;2023-09-12T13:35:52;3.50;;;2.93;;
20743;SDS011;56303;52.160;-0.428;2023-09-12T13:38:19;4.00;;;2.92;;
20743;SDS011;56303;52.160;-0.428;2023-09-12T13:40:46;5.07;;;3.55;;
20743;SDS011;56303;52.160;-0.428;2023-09-12T13:43:13;4.83;;;3.90;;
20743;SDS011;56303;52.160;-0.428;2023-09-12T13:45:41;5.27;;;3.60;;
20743;SDS011;56303;52.160;-0.428;2023-09-12T13:48:08;4.57;;;3.57;;
20743;SDS011;56303;52.160;-0.428;2023-09-12T13:50:35;4.23;;;3.53;;
20743;SDS011;56303;52.160;-0.428;2023-09-12T13:53:02;5.33;;;3.67;;
20743;SDS011;56303;52.160;-0.428;2023-09-12T13:55:35;4.70;;;3.60;;
20743;SDS011;56303;52.160;-0.428;2023-09-12T13:58:23;6.03;;;3.50;;
20743;SDS011;56303;52.160;-0.428;2023-09-12T14:00:58;4.60;;;3.70;;
20743;SDS011;56303;52.160;-0.428;2023-09-12T14:03:25;3.90;;;3.33;;
20743;SDS011;56303;52.160;-0.428;2023-09-12T14:05:55;7.30;;;3.80;;
20743;SDS011;56303;52.160;-0.428;2023-09-12T14:08:23;9.07;;;4.40;;
20743;SDS011;56303;52.160;-0.428;2023-09-12T14:10:51;5.60;;;4.10;;
20743;SDS011;56303;52.160;-0.428;2023-09-12T14:13:19;6.60;;;3.97;;
20743;SDS011;56303;52.160;-0.428;2023-09-12T14:15:48;4.97;;;3.43;;
20743;SDS011;56303;52.160;-0.428;2023-09-12T14:18:18;5.87;;;4.00;;
20743;SDS011;56303;52.160;-0.428;2023-09-12T14:20:47;4.13;;;3.30;;
20743;SDS011;56303;52.160;-0.428;2023-09-12T14:23:14;5.43;;;3.87;;
20743;SDS011;56303;52.160;-0.428;2023-09-12T14:25:42;3.93;;;3.37;;
20743;SDS011;56303;52.160;-0.428;2023-09-12T14:28:11;2.22;;;2.03;;
20743;SDS011;56303;52.160;-0.428;2023-09-12T14:30:40;3.78;;;2.90;;
20743;SDS011;56303;52.160;-0.428;2023-09-12T14:33:11;4.25;;;2.97;;
20743;SDS011;56303;52.160;-0.428;2023-09-12T14:35:43;5.40;;;3.60;;
20743;SDS011;56303;52.160;-0.428;2023-09-12T14:38:10;4.90;;;3.60;;
20743;SDS011;56303;52.160;-0.428;2023-09-12T14:40:37;4.72;;;3.40;;
20743;SDS011;56303;52.160;-0.428;2023-09-12T14:43:04;4.00;;;3.25;;
20743;SDS011;56303;52.160;-0.428;2023-09-12T14:45:32;3.80;;;3.20;;
20743;SDS011;56303;52.160;-0.428;2023-09-12T14:47:59;4.13;;;3.50;;
20743;SDS011;56303;52.160;-0.428;2023-09-12T14:50:26;4.93;;;3.70;;
20743;SDS011;56303;52.160;-0.428;2023-09-12T14:53:07;5.07;;;3.40;;
20743;SDS011;56303;52.160;-0.428;2023-09-12T14:55:34;6.67;;;3.90;;
20743;SDS011;56303;52.160;-0.428;2023-09-12T14:58:01;5.17;;;3.43;;
20743;SDS011;56303;52.160;-0.428;2023-09-12T15:00:28;7.33;;;3.50;;
20743;SDS011;56303;52.160;-0.428;2023-09-12T15:02:56;5.80;;;3.60;;
20743;SDS011;56303;52.160;-0.428;2023-09-12T15:05:23;4.80;;;3.77;;